Pagrindinis puslapis
METAR-TAF:

METAR-TAF

Oro uostai :

Kuveitas, Kuveitas

platuma: 29-13N, ilguma: 047-59E, Aukštis: 55 m

Dabartinis oras

Ataskaita buvo paskelbta 1 valandą ir 3 minutes, ne 04:00 UTC
Ramus vėjas
Temperatūra 30°C
Drėgmė 24%
Slėgis 1006 hPa
Matomumas: 3000 m
(silpnas) dulkės

METAR: OKBK 180400Z 00000KT 3000 -DU NSC 30/07 Q1006 NOSIG

Laikas: 08:03 (05:03 UTC)

Prognozė

Ataskaita buvo paskelbta 6 valandos ir 18 minutes, ne 22:45 UTC
Prognozė galioja nuo 18 metu 00 UTC su 19 metu 06 UTC
Vėjas 12 kt iš Šiaurės/Šiaurės Vakarų
Matomumas: 7000 m
Laikinai
nuo 18 metu 00 UTC su 18 metu 05 UTC
Vėjas 3 kt nuo kintamojo kryptimis
Matomumas: 4000 m
migla

TAF: OKBK 172245Z 1800/1906 34012KT 7000 NSC TEMPO 1800/1805 VRB03KT 4000 HZ

Orai ataskaitas ir orų prognozės (METAR, TAF).

turimą stotys yra geltonos ir raudonos taškus žemėlapyje.

Perkelti pele per norėdami pamatyti stoties vardą.

Tada spustelėkite, norėdami matyti oro stebėjimo ir prognozės.

Norėdami pakeisti žemėlapį: spustelėkite ant žalios mygtukų su juodo kryžiaus žemyn,; žalią mygtuką su brūkšneliu, jei norite nutolinti; arba žalių rodyklių gretimoms žemėlapius.


METAR-TAF: